9NE7 weather

Bay Field
Stapleton, Nebraska, United States

Public forecast

Using degrees Fahrenheit for public forecast. Weather courtesy of forecast.io.

Closest aviation weather report (METAR) to Bay Field

Closest report is North Platte Regional Airport Lee Bird Field, 20.5 nm (38.0 km) SSW. Retrieved 2019/10/18 16:53 UTC (20 minutes ago):

KLBF 181653Z AUTO 35016KT 10SM CLR 19/02 A2951 RMK AO2 WSHFT 1632 SLP977 T01890022

Closest aviation forecast (TAF) to Bay Field

Closest forecast is North Platte Regional Airport Lee Bird Field, 20.5 nm (38.0 km) SSW. Retrieved 2019/10/18 12:30 UTC (5 hours ago):

TAF KLBF 181129Z 1812/1912 15007KT P6SM SKC FM181600 30012G20KT P6SM FEW250 FM181900 33017G27KT P6SM FEW250 FM182300 34015KT P6SM BKN200 FM190200 33008KT P6SM SCT200